createdAt,value
2022-11-05T00:02:35.145Z,15.93
2022-11-05T00:05:21.368Z,12.83
2022-11-05T00:08:09.413Z,21.83
2022-11-05T00:10:39.709Z,14.80
2022-11-05T00:13:26.220Z,15.23
2022-11-05T00:16:11.920Z,13.57
2022-11-05T00:18:40.502Z,16.30
2022-11-05T00:21:29.004Z,14.60
2022-11-05T00:24:17.252Z,11.90
2022-11-05T00:26:49.076Z,17.83
2022-11-05T00:29:17.668Z,18.00
2022-11-05T00:31:46.091Z,13.97
2022-11-05T00:34:14.526Z,10.30
2022-11-05T00:36:42.945Z,10.13
2022-11-05T00:39:11.500Z,10.63
2022-11-05T00:41:39.910Z,9.07
2022-11-05T00:44:27.043Z,13.10
2022-11-05T00:47:15.517Z,11.70
2022-11-05T00:49:42.951Z,12.37
2022-11-05T00:52:25.698Z,7.60
2022-11-05T00:54:54.158Z,16.53
2022-11-05T00:57:22.625Z,10.30
2022-11-05T00:59:52.598Z,14.37
2022-11-05T01:02:21.079Z,12.13
2022-11-05T01:04:49.596Z,13.37
2022-11-05T01:07:18.055Z,8.77
2022-11-05T01:09:46.474Z,9.80
2022-11-05T01:12:14.910Z,8.27
2022-11-05T01:14:43.444Z,12.13
2022-11-05T01:17:13.305Z,9.93
2022-11-05T01:19:41.715Z,12.20
2022-11-05T01:22:10.145Z,8.30
2022-11-05T01:24:38.615Z,8.00
2022-11-05T01:27:07.054Z,9.20
2022-11-05T01:29:35.437Z,16.33
2022-11-05T01:32:03.897Z,11.20
2022-11-05T01:34:33.756Z,11.60
2022-11-05T01:37:02.141Z,6.20
2022-11-05T01:39:30.714Z,7.00
2022-11-05T01:41:59.733Z,8.37
2022-11-05T01:44:56.927Z,11.23
2022-11-05T01:47:36.022Z,8.87
2022-11-05T01:50:08.425Z,9.37
2022-11-05T01:52:37.447Z,9.37
2022-11-05T01:55:06.444Z,10.73
2022-11-05T01:57:34.862Z,13.77
2022-11-05T02:00:03.736Z,10.67
2022-11-05T02:02:32.242Z,9.90
2022-11-05T02:05:01.678Z,8.03
2022-11-05T02:07:31.477Z,6.60
2022-11-05T02:10:02.416Z,12.50
2022-11-05T02:12:30.985Z,12.60
2022-11-05T02:14:59.528Z,7.73
2022-11-05T02:17:35.416Z,6.23
2022-11-05T02:20:23.161Z,8.27
2022-11-05T02:23:33.702Z,6.07
2022-11-05T02:26:36.845Z,9.37
2022-11-05T02:29:40.017Z,14.37
2022-11-05T02:32:12.803Z,9.17
2022-11-05T02:34:45.086Z,12.13
2022-11-05T02:37:15.614Z,10.50
2022-11-05T02:39:47.278Z,8.33
2022-11-05T02:42:21.410Z,10.30
2022-11-05T02:44:53.613Z,11.13
2022-11-05T02:47:26.404Z,10.60
2022-11-05T02:49:58.661Z,10.43
2022-11-05T02:52:29.598Z,10.70
2022-11-05T02:54:59.685Z,18.00
2022-11-05T02:57:29.702Z,10.17
2022-11-05T03:00:05.478Z,8.63
2022-11-05T03:02:35.411Z,8.70
2022-11-05T03:05:04.031Z,16.13
2022-11-05T03:07:40.541Z,11.23
2022-11-05T03:10:29.850Z,12.37
2022-11-05T03:13:05.634Z,13.50
2022-11-05T03:15:44.134Z,11.07
2022-11-05T03:18:16.206Z,8.17
2022-11-05T03:20:47.951Z,11.80
2022-11-05T03:23:19.533Z,11.73
2022-11-05T03:25:49.058Z,13.33
2022-11-05T03:28:17.866Z,12.43
2022-11-05T03:30:46.296Z,12.10
2022-11-05T03:33:18.361Z,18.07
2022-11-05T03:35:47.755Z,9.07
2022-11-05T03:38:18.437Z,16.27
2022-11-05T03:40:46.825Z,13.90
2022-11-05T03:43:15.264Z,10.47
2022-11-05T03:45:45.040Z,11.23
2022-11-05T03:48:14.911Z,12.13
2022-11-05T03:50:46.094Z,13.03
2022-11-05T03:53:16.389Z,10.27
2022-11-05T03:55:51.204Z,12.03
2022-11-05T03:58:21.046Z,9.37
2022-11-05T04:00:49.936Z,11.37
2022-11-05T04:03:19.716Z,10.40
2022-11-05T04:06:08.318Z,12.17
2022-11-05T04:08:54.515Z,14.50
2022-11-05T04:11:40.238Z,9.40
2022-11-05T04:14:08.620Z,9.73
2022-11-05T04:16:54.728Z,15.07
2022-11-05T04:19:38.378Z,14.77
2022-11-05T04:22:24.480Z,10.73
2022-11-05T04:24:52.918Z,14.97
2022-11-05T04:27:21.345Z,10.77
2022-11-05T04:30:07.358Z,9.30
2022-11-05T04:32:35.738Z,14.50
2022-11-05T04:35:05.879Z,10.70
2022-11-05T04:37:34.346Z,10.43
2022-11-05T04:40:02.813Z,13.93
2022-11-05T04:42:31.214Z,17.47
2022-11-05T04:44:59.644Z,21.23
2022-11-05T04:47:28.110Z,13.63
2022-11-05T04:49:56.594Z,6.90
2022-11-05T04:52:26.356Z,15.67
2022-11-05T04:54:54.742Z,10.63
2022-11-05T04:57:23.158Z,9.50
2022-11-05T04:59:52.075Z,20.13
2022-11-05T05:02:20.542Z,5.90
2022-11-05T05:04:49.030Z,18.80
2022-11-05T05:07:17.457Z,7.13
2022-11-05T05:09:47.198Z,16.47
2022-11-05T05:12:15.648Z,15.03
2022-11-05T05:14:44.101Z,18.67
2022-11-05T05:17:12.529Z,19.50
2022-11-05T05:19:58.293Z,11.93
2022-11-05T05:22:26.726Z,9.47
2022-11-05T05:24:56.691Z,7.97
2022-11-05T05:27:26.029Z,19.13
2022-11-05T05:29:54.442Z,11.23
2022-11-05T05:32:22.905Z,11.60
2022-11-05T05:34:51.285Z,17.53
2022-11-05T05:37:19.693Z,12.17
2022-11-05T05:39:48.547Z,13.47
2022-11-05T05:42:18.300Z,12.33
2022-11-05T05:44:46.680Z,13.57
2022-11-05T05:47:15.280Z,9.30
2022-11-05T05:49:43.657Z,7.00
2022-11-05T05:52:12.077Z,14.97
2022-11-05T05:54:42.950Z,17.43
2022-11-05T05:57:11.595Z,9.70
2022-11-05T05:59:41.378Z,10.33
2022-11-05T06:02:10.870Z,9.00
2022-11-05T06:04:39.392Z,10.70
2022-11-05T06:07:09.075Z,10.30
2022-11-05T06:09:37.562Z,11.23
2022-11-05T06:12:06.478Z,7.17
2022-11-05T06:14:34.925Z,14.43
2022-11-05T06:17:04.727Z,16.67
2022-11-05T06:19:33.135Z,10.63
2022-11-05T06:22:01.508Z,25.80
2022-11-05T06:24:29.893Z,8.57
2022-11-05T06:26:58.253Z,7.90
2022-11-05T06:29:26.669Z,4.70
2022-11-05T06:32:12.082Z,11.83
2022-11-05T06:34:40.494Z,10.40
2022-11-05T06:37:08.940Z,5.80
2022-11-05T06:39:37.437Z,9.83
2022-11-05T06:42:21.316Z,8.67
2022-11-05T06:44:49.760Z,10.40
2022-11-05T06:47:19.919Z,7.97
2022-11-05T06:49:48.370Z,8.70
2022-11-05T06:52:16.824Z,5.13
2022-11-05T06:54:45.336Z,15.40
2022-11-05T06:57:13.871Z,13.00
2022-11-05T06:59:42.264Z,9.10
2022-11-05T07:02:12.999Z,9.17
2022-11-05T07:04:42.875Z,6.07
2022-11-05T07:07:11.273Z,13.20
2022-11-05T07:09:43.953Z,8.20
2022-11-05T07:12:12.344Z,10.13
2022-11-05T07:14:40.773Z,9.33
2022-11-05T07:17:09.257Z,7.20
2022-11-05T07:19:37.655Z,6.30
2022-11-05T07:22:07.449Z,11.07
2022-11-05T07:24:35.912Z,7.63
2022-11-05T07:27:04.606Z,11.67
2022-11-05T07:29:32.981Z,6.77
2022-11-05T07:32:01.396Z,6.67
2022-11-05T07:34:29.783Z,6.73
2022-11-05T07:36:58.229Z,9.10
2022-11-05T07:39:28.097Z,12.70
2022-11-05T07:41:57.758Z,5.77
2022-11-05T07:44:26.315Z,10.00
2022-11-05T07:46:54.745Z,12.03
2022-11-05T07:49:23.747Z,8.80
2022-11-05T07:51:52.149Z,12.00
2022-11-05T07:54:20.581Z,14.30
2022-11-05T07:56:50.361Z,8.17
2022-11-05T07:59:18.739Z,13.13
2022-11-05T08:01:47.320Z,14.97
2022-11-05T08:04:15.961Z,8.60
2022-11-05T08:06:44.365Z,17.53
2022-11-05T08:09:12.901Z,12.13
2022-11-05T08:11:41.329Z,6.60
2022-11-05T08:14:11.164Z,9.53
2022-11-05T08:16:39.986Z,12.80
2022-11-05T08:19:08.392Z,19.60
2022-11-05T08:21:36.815Z,24.93
2022-11-05T08:24:05.614Z,12.43
2022-11-05T08:26:34.039Z,15.93
2022-11-05T08:29:02.513Z,10.83
2022-11-05T08:31:32.296Z,9.60
2022-11-05T08:34:02.699Z,9.13
2022-11-05T08:36:31.310Z,10.70
2022-11-05T08:38:59.743Z,7.30
2022-11-05T08:41:28.149Z,12.37
2022-11-05T08:43:57.132Z,11.67
2022-11-05T08:46:25.539Z,8.40
2022-11-05T08:48:55.341Z,16.47
2022-11-05T08:51:23.792Z,9.47
2022-11-05T08:53:52.267Z,9.50
2022-11-05T08:56:20.813Z,18.77
2022-11-05T08:58:49.260Z,13.63
2022-11-05T09:01:17.938Z,12.30
2022-11-05T09:03:46.422Z,12.90
2022-11-05T09:06:16.505Z,9.90
2022-11-05T09:08:44.930Z,15.20
2022-11-05T09:11:13.395Z,12.17
2022-11-05T09:13:41.793Z,9.80
2022-11-05T09:16:16.637Z,14.80
2022-11-05T09:18:45.074Z,13.93
2022-11-05T09:21:14.828Z,11.13
2022-11-05T09:23:43.816Z,18.53
2022-11-05T09:26:12.503Z,10.80
2022-11-05T09:28:40.999Z,13.60
2022-11-05T09:31:10.180Z,11.67
2022-11-05T09:33:39.258Z,11.90
2022-11-05T09:36:08.244Z,8.97
2022-11-05T09:38:38.033Z,9.83
2022-11-05T09:41:08.648Z,11.40
2022-11-05T09:43:38.193Z,12.13
2022-11-05T09:46:12.066Z,10.13
2022-11-05T09:48:40.464Z,13.40
2022-11-05T09:51:09.220Z,18.57
2022-11-05T09:53:41.191Z,13.37
2022-11-05T09:56:16.974Z,12.57
2022-11-05T09:58:46.775Z,8.83
2022-11-05T10:01:17.192Z,14.53
2022-11-05T10:03:47.794Z,8.40
2022-11-05T10:06:20.807Z,18.50
2022-11-05T10:08:52.651Z,4.20
2022-11-05T10:11:24.403Z,9.40
2022-11-05T10:13:56.180Z,8.10
2022-11-05T10:16:28.546Z,10.30
2022-11-05T10:18:59.997Z,9.83
2022-11-05T10:21:59.388Z,12.03
2022-11-05T10:24:20.095Z,18.13
2022-11-05T10:26:49.148Z,20.93
2022-11-05T10:29:20.313Z,13.27
2022-11-05T10:31:48.755Z,10.23
2022-11-05T10:34:17.869Z,11.87
2022-11-05T10:36:46.367Z,8.70
2022-11-05T10:39:15.651Z,6.50
2022-11-05T10:41:59.552Z,13.60
2022-11-05T10:44:34.156Z,10.03
2022-11-05T10:47:13.090Z,7.40
2022-11-05T10:49:51.623Z,9.80
2022-11-05T10:52:24.522Z,14.83
2022-11-05T10:54:53.579Z,6.37
2022-11-05T10:57:31.769Z,8.73
2022-11-05T11:00:23.782Z,6.53
2022-11-05T11:02:53.181Z,3.33
2022-11-05T11:05:22.940Z,3.80
2022-11-05T11:08:03.164Z,7.90
2022-11-05T11:10:33.758Z,5.73
2022-11-05T11:13:03.618Z,12.40
2022-11-05T11:15:33.606Z,10.20
2022-11-05T11:18:18.728Z,9.73
2022-11-05T11:20:47.491Z,5.83
2022-11-05T11:23:16.592Z,9.73
2022-11-05T11:25:48.333Z,1.87
2022-11-05T11:28:21.278Z,5.27
2022-11-05T11:30:51.246Z,4.10
2022-11-05T11:33:22.437Z,5.87
2022-11-05T11:35:51.021Z,8.60
2022-11-05T11:38:19.513Z,8.60
2022-11-05T11:40:47.911Z,11.67
2022-11-05T11:43:22.762Z,11.37
2022-11-05T11:45:52.823Z,5.17
2022-11-05T11:48:23.818Z,3.70
2022-11-05T11:50:52.367Z,8.10
2022-11-05T11:53:30.985Z,5.50
2022-11-05T11:56:15.625Z,9.43
2022-11-05T11:58:47.469Z,4.63
2022-11-05T12:01:43.765Z,3.27
2022-11-05T12:04:41.279Z,6.17
2022-11-05T12:07:19.548Z,6.23
2022-11-05T12:10:01.961Z,6.40
2022-11-05T12:12:34.639Z,7.17
2022-11-05T12:15:13.426Z,3.30
2022-11-05T12:17:46.758Z,4.63
2022-11-05T12:20:31.122Z,14.13
2022-11-05T12:23:21.260Z,7.37
2022-11-05T12:25:52.968Z,3.73
2022-11-05T12:29:16.715Z,4.03
2022-11-05T12:31:42.147Z,6.53
2022-11-05T12:34:19.862Z,21.67
2022-11-05T12:37:04.154Z,4.63
2022-11-05T12:39:45.298Z,8.47
2022-11-05T12:42:20.308Z,3.83
2022-11-05T12:45:02.238Z,5.13
2022-11-05T12:47:43.052Z,7.83
2022-11-05T12:50:19.495Z,3.70
2022-11-05T12:53:05.912Z,4.10
2022-11-05T12:55:37.701Z,3.20
2022-11-05T12:58:11.233Z,10.60
2022-11-05T13:00:40.782Z,4.97
2022-11-05T13:03:20.271Z,5.37
2022-11-05T13:05:50.595Z,8.87
2022-11-05T13:08:22.762Z,2.10
2022-11-05T13:10:52.698Z,3.80
2022-11-05T13:13:26.273Z,13.40
2022-11-05T13:15:56.046Z,9.40
2022-11-05T13:18:29.208Z,14.43
2022-11-05T13:20:57.675Z,1.53
2022-11-05T13:23:30.184Z,3.87
2022-11-05T13:26:00.753Z,3.57
2022-11-05T13:28:35.209Z,3.83
2022-11-05T13:31:05.412Z,3.23
2022-11-05T13:33:36.402Z,2.63
2022-11-05T13:36:24.296Z,2.10
2022-11-05T13:39:07.108Z,11.97
2022-11-05T13:42:02.279Z,5.60
2022-11-05T13:45:21.806Z,10.13
2022-11-05T13:48:17.127Z,3.90
2022-11-05T13:51:07.910Z,4.40
2022-11-05T13:53:51.582Z,5.70
2022-11-05T13:56:30.800Z,3.03
2022-11-05T13:59:40.622Z,2.20
2022-11-05T14:02:14.862Z,3.13
2022-11-05T14:04:46.208Z,4.87
2022-11-05T14:07:18.141Z,12.03
2022-11-05T14:09:46.567Z,4.33
2022-11-05T14:12:22.262Z,5.80
2022-11-05T14:14:58.447Z,8.63
2022-11-05T14:17:33.865Z,7.20
2022-11-05T14:20:25.313Z,3.83
2022-11-05T14:22:55.146Z,8.70
2022-11-05T14:26:03.136Z,2.87
2022-11-05T14:28:53.075Z,10.30
2022-11-05T14:32:07.094Z,3.80
2022-11-05T14:34:46.512Z,4.60
2022-11-05T14:37:26.026Z,5.40
2022-11-05T14:39:56.120Z,3.23
2022-11-05T14:42:26.385Z,4.00
2022-11-05T14:45:17.038Z,5.50
2022-11-05T14:47:50.892Z,10.17
2022-11-05T14:50:20.654Z,10.40
2022-11-05T14:52:53.026Z,6.43
2022-11-05T14:55:29.279Z,1.93
2022-11-05T14:58:32.077Z,4.20
2022-11-05T15:01:00.744Z,2.47
2022-11-05T15:03:59.037Z,3.33
2022-11-05T15:06:34.424Z,2.67
2022-11-05T15:09:22.212Z,2.17
2022-11-05T15:12:09.148Z,2.17
2022-11-05T15:14:42.228Z,4.20
2022-11-05T15:17:16.347Z,8.33
2022-11-05T15:19:44.786Z,5.77
2022-11-05T15:22:27.888Z,8.97
2022-11-05T15:24:56.713Z,4.83
2022-11-05T15:27:36.861Z,7.30
2022-11-05T15:30:16.163Z,17.10
2022-11-05T15:32:44.640Z,39.50
2022-11-05T15:35:21.477Z,23.87
2022-11-05T15:37:54.817Z,11.93
2022-11-05T15:40:27.609Z,9.43
2022-11-05T15:43:19.593Z,9.00
2022-11-05T15:46:01.939Z,16.10
2022-11-05T15:48:30.439Z,20.83
2022-11-05T15:50:58.999Z,10.80
2022-11-05T15:56:49.997Z,16.80
2022-11-05T15:59:20.929Z,6.90
2022-11-05T16:01:51.154Z,8.13
2022-11-05T16:04:20.439Z,5.93
2022-11-05T16:06:50.429Z,11.90
2022-11-05T16:09:22.797Z,8.77
2022-11-05T16:11:54.409Z,14.67
2022-11-05T16:14:24.185Z,7.47
2022-11-05T16:16:52.638Z,9.23
2022-11-05T16:19:40.610Z,12.43
2022-11-05T16:22:09.486Z,9.23
2022-11-05T16:24:37.955Z,7.20
2022-11-05T16:27:06.429Z,10.73
2022-11-05T16:29:38.652Z,8.73
2022-11-05T16:32:08.490Z,10.47
2022-11-05T16:34:38.660Z,8.90
2022-11-05T16:37:07.495Z,13.13
2022-11-05T16:39:36.068Z,10.73
2022-11-05T16:42:06.597Z,15.50
2022-11-05T16:44:36.392Z,11.53
2022-11-05T16:47:04.892Z,15.67
2022-11-05T16:49:33.298Z,12.30
2022-11-05T16:52:01.702Z,12.83
2022-11-05T16:54:30.104Z,14.97
2022-11-05T16:56:58.522Z,15.10
2022-11-05T16:59:27.830Z,75.40
2022-11-05T17:01:57.766Z,30.20
2022-11-05T17:04:26.328Z,30.00
2022-11-05T17:06:54.786Z,27.13
2022-11-05T17:09:23.207Z,23.20
2022-11-05T17:11:51.612Z,32.17
2022-11-05T17:14:20.086Z,30.83
2022-11-05T17:16:51.096Z,28.73
2022-11-05T17:19:20.917Z,23.13
2022-11-05T17:21:50.035Z,15.30
2022-11-05T17:24:18.587Z,15.27
2022-11-05T17:26:47.026Z,12.03
2022-11-05T17:29:15.449Z,11.13
2022-11-05T17:31:43.873Z,8.80
2022-11-05T17:34:12.317Z,11.07
2022-11-05T17:36:42.142Z,10.97
2022-11-05T17:39:11.537Z,12.63
2022-11-05T17:41:40.037Z,17.10
2022-11-05T17:44:08.460Z,10.73
2022-11-05T17:46:36.912Z,10.10
2022-11-05T17:49:05.345Z,12.23
2022-11-05T17:51:34.590Z,18.23
2022-11-05T17:54:04.432Z,13.50
2022-11-05T17:56:44.445Z,11.80
2022-11-05T17:59:13.369Z,19.17
2022-11-05T18:01:43.543Z,25.80
2022-11-05T18:04:12.219Z,22.33
2022-11-05T18:06:41.413Z,16.20
2022-11-05T18:09:11.593Z,17.90
2022-11-05T18:11:40.317Z,19.37
2022-11-05T18:14:08.857Z,15.20
2022-11-05T18:16:37.260Z,12.33
2022-11-05T18:19:05.767Z,23.77
2022-11-05T18:21:34.222Z,23.80
2022-11-05T18:24:04.159Z,27.17
2022-11-05T18:26:33.932Z,22.17
2022-11-05T18:29:02.488Z,26.60
2022-11-05T18:31:30.873Z,31.10
2022-11-05T18:33:59.942Z,27.50
2022-11-05T18:36:29.617Z,25.70
2022-11-05T18:38:58.928Z,20.60
2022-11-05T18:41:27.729Z,26.33
2022-11-05T18:44:01.069Z,16.07
2022-11-05T18:46:56.441Z,22.60
2022-11-05T18:49:17.999Z,21.20
2022-11-05T18:51:46.624Z,27.23
2022-11-05T18:54:15.052Z,17.90
2022-11-05T18:56:45.862Z,15.33
2022-11-05T19:02:05.525Z,14.00
2022-11-05T19:04:35.807Z,12.37
2022-11-05T19:07:05.901Z,21.90
2022-11-05T19:09:34.670Z,19.00
2022-11-05T19:12:03.247Z,26.70
2022-11-05T19:14:33.128Z,23.13
2022-11-05T19:17:01.774Z,66.10
2022-11-05T19:19:30.176Z,38.50
2022-11-05T19:21:58.967Z,37.80
2022-11-05T19:24:27.568Z,81.67
2022-11-05T19:26:55.982Z,71.00
2022-11-05T19:29:24.502Z,129.23
2022-11-05T19:31:54.364Z,79.83
2022-11-05T19:34:22.815Z,74.33
2022-11-05T19:36:51.242Z,115.67
2022-11-05T19:39:19.653Z,103.97
2022-11-05T19:41:49.338Z,97.40
2022-11-05T19:44:17.731Z,132.10
2022-11-05T19:46:46.229Z,138.10
2022-11-05T19:49:16.008Z,110.53
2022-11-05T19:51:44.414Z,191.33
2022-11-05T19:54:12.880Z,119.47
2022-11-05T19:56:41.346Z,240.20
2022-11-05T19:59:11.173Z,366.53
2022-11-05T20:01:39.709Z,230.50
2022-11-05T20:04:08.507Z,302.50
2022-11-05T20:06:40.061Z,117.87
2022-11-05T20:09:27.099Z,51.90
2022-11-05T20:11:56.638Z,52.63
2022-11-05T20:14:25.551Z,42.97
2022-11-05T20:16:54.122Z,38.37
2022-11-05T20:19:22.980Z,58.07
2022-11-05T20:21:52.733Z,64.47
2022-11-05T20:24:24.787Z,48.20
2022-11-05T20:26:54.504Z,32.43
2022-11-05T20:29:23.302Z,41.03
2022-11-05T20:31:51.870Z,19.97
2022-11-05T20:34:20.312Z,19.80
2022-11-05T20:36:48.799Z,15.40
2022-11-05T20:39:18.741Z,11.97
2022-11-05T20:41:47.494Z,17.03
2022-11-05T20:44:15.909Z,35.10
2022-11-05T20:46:44.492Z,37.20
2022-11-05T20:49:12.919Z,38.23
2022-11-05T20:51:41.561Z,45.47
2022-11-05T20:54:10.018Z,47.57
2022-11-05T20:56:39.839Z,88.57
2022-11-05T20:59:08.371Z,75.77
2022-11-05T21:01:37.143Z,54.33
2022-11-05T21:04:05.902Z,29.97
2022-11-05T21:06:34.815Z,31.60
2022-11-05T21:09:03.338Z,34.57
2022-11-05T21:11:52.087Z,47.23
2022-11-05T21:14:21.850Z,44.93
2022-11-05T21:16:50.268Z,30.47
2022-11-05T21:19:18.698Z,24.10
2022-11-05T21:21:47.821Z,16.97
2022-11-05T21:24:16.489Z,32.03
2022-11-05T21:26:44.919Z,32.67
2022-11-05T21:29:13.358Z,20.83
2022-11-05T21:31:43.902Z,18.00
2022-11-05T21:34:12.414Z,15.77
2022-11-05T21:36:41.227Z,13.90
2022-11-05T21:39:13.513Z,18.60
2022-11-05T21:41:42.932Z,16.90
2022-11-05T21:44:11.399Z,19.07
2022-11-05T21:46:39.881Z,31.83
2022-11-05T21:49:09.641Z,56.37
2022-11-05T21:51:55.478Z,38.07
2022-11-05T21:54:41.438Z,19.13
2022-11-05T21:57:31.074Z,17.07
2022-11-05T22:00:00.561Z,11.03
2022-11-05T22:02:29.485Z,11.80
2022-11-05T22:05:00.089Z,15.10
2022-11-05T22:07:30.025Z,15.33
2022-11-05T22:09:58.576Z,31.63
2022-11-05T22:12:27.022Z,34.27
2022-11-05T22:14:55.505Z,27.60
2022-11-05T22:17:23.968Z,32.60
2022-11-05T22:19:52.628Z,23.73
2022-11-05T22:22:22.502Z,39.03
2022-11-05T22:24:50.994Z,23.30
2022-11-05T22:27:21.386Z,32.67
2022-11-05T22:29:49.945Z,18.60
2022-11-05T22:32:18.411Z,19.40
2022-11-05T22:34:48.286Z,13.23
2022-11-05T22:37:16.672Z,20.00
2022-11-05T22:39:46.487Z,27.80
2022-11-05T22:42:14.935Z,36.57
2022-11-05T22:44:43.433Z,30.47
2022-11-05T22:47:12.265Z,28.87
2022-11-05T22:49:40.791Z,26.63
2022-11-05T22:52:09.591Z,29.73
2022-11-05T22:54:39.437Z,29.33
2022-11-05T22:57:09.548Z,32.67
2022-11-05T22:59:37.956Z,18.70
2022-11-05T23:02:09.894Z,12.67
2022-11-05T23:04:38.914Z,17.73
2022-11-05T23:07:27.901Z,87.47
2022-11-05T23:10:14.153Z,37.87
2022-11-05T23:12:44.577Z,21.50
2022-11-05T23:15:34.391Z,20.47
2022-11-05T23:18:20.569Z,11.23
2022-11-05T23:21:06.708Z,31.47
2022-11-05T23:23:52.700Z,26.60
2022-11-05T23:26:38.798Z,50.57
2022-11-05T23:29:08.624Z,36.20
2022-11-05T23:31:54.726Z,22.13
2022-11-05T23:34:23.135Z,30.23
2022-11-05T23:37:09.257Z,28.07
2022-11-05T23:39:42.383Z,13.83
2022-11-05T23:42:28.626Z,16.73
2022-11-05T23:45:15.990Z,15.07
2022-11-05T23:48:02.239Z,11.73
2022-11-05T23:50:34.393Z,10.23
2022-11-05T23:53:06.976Z,5.20
2022-11-05T23:55:35.600Z,8.93
2022-11-05T23:58:04.024Z,17.23
